This is the latest recevied weather packets stored in our database for station/object OM8AKX-12. If no packets are shown the sender has not sent any weather packets the latest 10 day(s).
| Time | Temp. | Humidity | Pressure | Rain* | Wind** | Luminosity | Snow |
|---|---|---|---|---|---|---|---|
| 1787827875 | 26.11° C | 38% | 1015 hPa | - | - | - | - |
| 1787826975 | 26.11° C | 38% | 1015.2 hPa | - | - | - | - |
| 1787826075 | 26.11° C | 37% | 1015.2 hPa | - | - | - | - |
| 1787825175 | 26.11° C | 39% | 1015.3 hPa | - | - | - | - |
| 1787824275 | 25° C | 40% | 1015.2 hPa | - | - | - | - |
| 1787822475 | 24.44° C | 43% | 1015.3 hPa | - | - | - | - |
| 1787821575 | 23.89° C | 44% | 1015.3 hPa | - | - | - | - |
| 1787820675 | 23.33° C | 48% | 1015.4 hPa | - | - | - | - |
| 1787819775 | 22.22° C | 51% | 1015.6 hPa | - | - | - | - |
| 1787818875 | 21.67° C | 52% | 1015.7 hPa | - | - | - | - |
| 1787817975 | 22.22° C | 50% | 1015.6 hPa | - | - | - | - |
| 1787817075 | 21.67° C | 50% | 1015.5 hPa | - | - | - | - |
| 1787816174 | 21.11° C | 52% | 1015.5 hPa | - | - | - | - |
| 1787815275 | 21.11° C | 54% | 1015.5 hPa | - | - | - | - |
| 1787814374 | 20° C | 55% | 1015.5 hPa | - | - | - | - |
| 1787813474 | 20° C | 57% | 1015.3 hPa | - | - | - | - |
| 1787812574 | 19.44° C | 58% | 1015.2 hPa | - | - | - | - |
| 1787811674 | 18.89° C | 61% | 1015.5 hPa | - | - | - | - |
| 1787810774 | 18.89° C | 61% | 1015.3 hPa | - | - | - | - |
| 1787809874 | 17.78° C | 66% | 1015.4 hPa | - | - | - | - |
| 1787808974 | 17.22° C | 67% | 1015.2 hPa | - | - | - | - |
| 1787808074 | 17.78° C | 67% | 1015.1 hPa | - | - | - | - |
| 1787807174 | 17.78° C | 68% | 1015.1 hPa | - | - | - | - |
| 1787806274 | 17.22° C | 72% | 1015 hPa | - | - | - | - |
| 1787805380 | 16.11° C | 78% | 1015 hPa | - | - | - | - |
* Rain since midnight (hover to see other rain measurements)
** Current wind speed in m/s (hover to see current wind gust speed)